Terminal Aerodrome Forecast
Issued by NWS Twin Cities, MN

Home | Current Version | Previous Version | Graphics & Text | Print | Product List | Glossary On
Versions: 1 2 3 4 5 6 7 8 9 10 11 12 13 14 15 16 17 18 19 20 21
000
FTUS43 KMPX 260800 AAB
TAFMSP
TAF AMD
KMSP 260814Z 2608/2712 01006KT 6SM BR SCT007 OVC035
     FM260930 01006KT 5SM BR OVC007
     FM261600 35008KT P6SM OVC015
     FM270300 36007KT 4SM -SN BR OVC012
      TEMPO 2704/2708 2SM -SN BR OVC007=

USA.gov is the U.S. government's official web portal to all federal, state and local government web resources and services.